Time;durP1;ratioP1;P1;durP2;ratioP2;P2;SDS_P1;SDS_P2;PMS_P1;PMS_P2;Temp;Humidity;BMP_temperature;BMP_pressure;BME280_temperature;BME280_humidity;BME280_pressure;Samples;Min_cycle;Max_cycle;Signal;HPM_P1;HPM_P2
2021/03/26 00:01:00;;;;;;;1.02;0.75;;;23.10;78.90;;;;;;5092761;28;20397;-59
2021/03/26 00:03:30;;;;;;;1.40;0.68;;;23.10;79.30;;;;;;5092394;28;20024;-59
2021/03/26 00:06:01;;;;;;;4.28;1.25;;;23.20;76.30;;;;;;5092134;28;20440;-58
2021/03/26 00:08:28;;;;;;;2.15;1.13;;;23.30;77.20;;;;;;5092364;28;20060;-60
2021/03/26 00:10:56;;;;;;;3.88;1.20;;;23.30;77.40;;;;;;5073743;28;20035;-62
2021/03/26 00:13:24;;;;;;;2.92;1.15;;;23.30;73.80;;;;;;5091890;28;20020;-57
2021/03/26 00:15:52;;;;;;;4.60;1.58;;;23.40;76.30;;;;;;5092071;28;20047;-60
2021/03/26 00:18:20;;;;;;;8.60;2.33;;;23.30;74.70;;;;;;5092102;28;20024;-62
2021/03/26 00:20:47;;;;;;;10.32;2.60;;;23.40;74.10;;;;;;5092399;28;20020;-60
2021/03/26 00:23:15;;;;;;;4.13;1.42;;;23.40;73.80;;;;;;5092094;28;20028;-55
2021/03/26 00:25:42;;;;;;;2.35;1.13;;;23.40;76.90;;;;;;5091775;28;20111;-61
2021/03/26 00:28:10;;;;;;;2.05;0.93;;;23.30;78.30;;;;;;5091905;28;20047;-57
2021/03/26 00:30:37;;;;;;;4.40;1.45;;;23.20;77.70;;;;;;5092102;28;20016;-55
2021/03/26 00:33:07;;;;;;;5.68;1.27;;;23.30;74.10;;;;;;5091908;28;20027;-53
2021/03/26 00:35:35;;;;;;;3.03;1.13;;;23.20;78.30;;;;;;5091809;28;20035;-63
2021/03/26 00:38:03;;;;;;;4.65;1.30;;;23.20;76.00;;;;;;5092307;28;20386;-58
2021/03/26 00:40:31;;;;;;;4.38;1.45;;;23.30;74.70;;;;;;5092280;28;20024;-60
2021/03/26 00:42:58;;;;;;;5.00;1.60;;;23.30;75.60;;;;;;5091931;28;20538;-59
2021/03/26 00:45:32;;;;;;;4.45;1.45;;;23.30;75.80;;;;;;5091911;28;20039;-57
2021/03/26 00:48:01;;;;;;;1.38;1.02;;;23.30;76.30;;;;;;5091664;28;20070;-58
2021/03/26 00:50:35;;;;;;;4.25;1.95;;;23.30;78.60;;;;;;5091593;28;20020;-59
2021/03/26 00:53:10;;;;;;;6.55;1.38;;;23.40;76.40;;;;;;5081243;28;20028;-54
2021/03/26 00:55:38;;;;;;;6.55;2.03;;;23.40;75.40;;;;;;5067842;28;20036;-61
2021/03/26 00:58:06;;;;;;;4.30;1.60;;;23.40;76.60;;;;;;5069586;28;20032;-54
2021/03/26 01:00:36;;;;;;;4.00;1.75;;;23.40;77.10;;;;;;5069588;28;20036;-53
2021/03/26 01:03:05;;;;;;;5.07;2.10;;;23.30;78.90;;;;;;5066724;28;20040;-55
2021/03/26 01:05:36;;;;;;;9.57;5.07;;;23.30;79.40;;;;;;5068712;28;20389;-56
2021/03/26 01:08:04;;;;;;;9.57;6.72;;;23.40;77.20;;;;;;5067503;28;20035;-51
2021/03/26 01:10:54;;;;;;;8.32;4.72;;;23.40;77.50;;;;;;5069203;28;20036;-53
2021/03/26 01:13:26;;;;;;;12.57;6.00;;;23.50;76.00;;;;;;5068746;28;20029;-52
2021/03/26 01:15:53;;;;;;;10.95;6.55;;;23.60;77.60;;;;;;5068885;28;20032;-53
2021/03/26 01:18:25;;;;;;;14.60;8.52;;;23.50;77.60;;;;;;5069620;28;20024;-53
2021/03/26 01:20:54;;;;;;;12.27;6.97;;;23.60;78.60;;;;;;5065485;28;20063;-51
2021/03/26 01:23:21;;;;;;;13.93;7.43;;;23.60;77.10;;;;;;5068293;28;20060;-55
2021/03/26 01:25:49;;;;;;;12.07;7.07;;;23.50;77.20;;;;;;5050778;28;20375;-56
2021/03/26 01:28:20;;;;;;;6.68;4.90;;;23.50;78.60;;;;;;5069738;28;20025;-53
2021/03/26 01:30:48;;;;;;;15.60;5.97;;;23.50;77.60;;;;;;5067401;28;20025;-57
2021/03/26 01:33:16;;;;;;;10.00;6.40;;;23.50;78.30;;;;;;5067609;28;20035;-55
2021/03/26 01:35:43;;;;;;;8.75;6.72;;;23.50;78.40;;;;;;5068313;28;20037;-57
2021/03/26 01:38:11;;;;;;;8.63;6.25;;;23.50;79.50;;;;;;5068555;28;20071;-55
2021/03/26 01:40:48;;;;;;;11.30;7.15;;;23.60;77.30;;;;;;5068862;28;20542;-56
2021/03/26 01:43:27;;;;;;;11.45;7.03;;;23.70;77.90;;;;;;5067788;28;20028;-55
2021/03/26 01:45:56;;;;;;;17.08;9.93;;;23.80;78.80;;;;;;5069143;28;20032;-53
2021/03/26 01:48:39;;;;;;;14.73;9.57;;;23.80;78.80;;;;;;5069415;28;20032;-57
2021/03/26 01:51:10;;;;;;;13.80;7.30;;;23.90;76.80;;;;;;5064171;28;20082;-56
2021/03/26 01:53:37;;;;;;;20.98;9.45;;;24.00;79.40;;;;;;5065446;28;20029;-54
2021/03/26 01:56:05;;;;;;;16.33;8.52;;;24.10;77.10;;;;;;5068285;28;20033;-58
2021/03/26 01:58:34;;;;;;;13.27;8.82;;;24.30;78.30;;;;;;5072754;28;20489;-56
2021/03/26 02:01:06;;;;;;;23.13;7.72;;;24.40;78.20;;;;;;5073174;28;20028;-60
2021/03/26 02:03:41;;;;;;;;;;;24.50;76.50;;;;;;5074651;28;20024;-58
2021/03/26 02:06:18;;;;;;;13.38;6.85;;;24.60;77.70;;;;;;5072071;28;19913;-62
2021/03/26 02:08:47;;;;;;;12.35;7.93;;;24.60;76.60;;;;;;5072931;28;20013;-60
2021/03/26 02:11:29;;;;;;;19.27;7.72;;;24.60;77.00;;;;;;5074664;28;20029;-58
2021/03/26 02:14:00;;;;;;;16.98;7.85;;;24.60;77.60;;;;;;5074730;28;20090;-59
2021/03/26 02:16:28;;;;;;;15.70;7.85;;;24.50;78.40;;;;;;5074129;28;20029;-54
2021/03/26 02:18:55;;;;;;;12.70;7.00;;;24.50;76.50;;;;;;5073812;28;20092;-55
2021/03/26 02:21:27;;;;;;;15.20;6.70;;;24.40;79.20;;;;;;5074560;28;20052;-54
2021/03/26 02:23:57;;;;;;;14.65;7.15;;;24.40;77.40;;;;;;5074531;28;20023;-54
2021/03/26 02:26:31;;;;;;;13.13;6.13;;;24.40;78.70;;;;;;5073941;28;20455;-54
2021/03/26 02:28:59;;;;;;;14.90;6.32;;;24.40;77.20;;;;;;5073170;28;20032;-58
2021/03/26 02:31:27;;;;;;;21.25;7.75;;;24.50;78.10;;;;;;5073968;28;20029;-54
2021/03/26 02:33:54;;;;;;;7.88;5.32;;;24.60;77.50;;;;;;5074351;28;20099;-54
2021/03/26 02:36:45;;;;;;;11.95;7.75;;;24.60;75.40;;;;;;5073467;28;20040;-55
2021/03/26 02:39:22;;;;;;;17.40;5.80;;;24.60;79.10;;;;;;5073805;28;20386;-52
2021/03/26 02:41:54;;;;;;;19.13;6.47;;;24.60;79.10;;;;;;5073889;28;20097;-53
2021/03/26 02:44:45;;;;;;;;;;;24.60;78.60;;;;;;5072750;28;20039;-60
2021/03/26 02:47:34;;;;;;;11.18;6.53;;;24.60;76.40;;;;;;5073913;28;20050;-53
2021/03/26 02:50:33;;;;;;;11.15;6.32;;;24.50;78.70;;;;;;5073766;28;20021;-52
2021/03/26 02:53:12;;;;;;;14.18;6.95;;;24.40;78.20;;;;;;5070843;28;20094;-59
2021/03/26 02:55:43;;;;;;;11.38;6.35;;;24.30;79.60;;;;;;5073800;28;20043;-58
2021/03/26 02:58:18;;;;;;;7.97;5.90;;;24.20;80.20;;;;;;5072952;28;20107;-60
2021/03/26 03:01:15;;;;;;;9.48;5.35;;;24.20;80.40;;;;;;5072722;28;20427;-60
2021/03/26 03:03:45;;;;;;;8.18;5.07;;;24.20;79.70;;;;;;5050345;28;20048;-54
2021/03/26 03:06:43;;;;;;;9.25;4.85;;;24.10;78.90;;;;;;5080828;28;20514;-55
2021/03/26 03:09:12;;;;;;;9.70;6.05;;;24.20;78.30;;;;;;5077240;28;20043;-58
2021/03/26 03:12:04;;;;;;;10.55;6.50;;;24.10;80.90;;;;;;5092920;28;20120;-58
2021/03/26 03:15:01;;;;;;;13.40;5.30;;;24.10;79.10;;;;;;5093195;28;20040;-62
2021/03/26 03:17:42;;;;;;;11.20;6.68;;;24.00;79.30;;;;;;5093403;28;20050;-60
2021/03/26 03:20:36;;;;;;;8.15;5.95;;;24.00;78.60;;;;;;5075325;28;20073;-62
2021/03/26 03:23:08;;;;;;;7.60;5.80;;;23.90;82.10;;;;;;5093841;28;20035;-57
2021/03/26 03:25:35;;;;;;;10.85;5.03;;;24.00;81.90;;;;;;5093789;28;20027;-65
2021/03/26 03:28:26;;;;;;;9.95;5.00;;;24.00;81.10;;;;;;5075011;28;20052;-58
2021/03/26 03:31:20;;;;;;;8.68;5.05;;;24.00;80.40;;;;;;5092912;28;20454;-58
2021/03/26 03:34:02;;;;;;;10.55;5.57;;;24.10;80.50;;;;;;5093031;28;20096;-58
2021/03/26 03:36:58;;;;;;;8.82;4.10;;;24.20;80.30;;;;;;5093503;28;20498;-54
2021/03/26 03:39:54;;;;;;;7.03;5.15;;;24.20;80.40;;;;;;5093402;28;20084;-56
2021/03/26 03:42:33;;;;;;;8.63;4.90;;;24.30;81.20;;;;;;5082598;28;20047;-61
2021/03/26 03:45:23;;;;;;;9.27;5.50;;;24.30;80.80;;;;;;5075223;28;20038;-58
2021/03/26 03:48:00;;;;;;;6.95;4.05;;;24.30;81.40;;;;;;5092279;28;20376;-54
2021/03/26 03:50:41;;;;;;;10.20;5.55;;;24.40;79.70;;;;;;5091076;28;20020;-53
2021/03/26 03:53:17;;;;;;;7.95;4.35;;;24.40;80.40;;;;;;5093621;28;20470;-60
2021/03/26 03:56:14;;;;;;;7.90;4.55;;;24.40;79.90;;;;;;5092892;28;20040;-61
2021/03/26 03:58:48;;;;;;;5.20;4.18;;;24.50;79.70;;;;;;5081962;28;20036;-57
2021/03/26 04:01:32;;;;;;;9.13;3.88;;;24.50;80.10;;;;;;5092800;28;20051;-62
2021/03/26 04:04:14;;;;;;;6.93;4.53;;;24.70;79.50;;;;;;5093253;28;20440;-56
2021/03/26 04:06:52;;;;;;;;;;;24.60;80.10;;;;;;5092947;28;20071;-55
2021/03/26 04:09:22;;;;;;;7.32;4.68;;;24.60;80.20;;;;;;5092233;28;19907;-58
2021/03/26 04:12:21;;;;;;;8.30;4.20;;;24.60;80.30;;;;;;5092341;28;20377;-59
2021/03/26 04:15:06;;;;;;;7.07;4.32;;;24.70;78.50;;;;;;5077382;28;20143;-58
2021/03/26 04:17:44;;;;;;;7.25;4.35;;;24.70;79.50;;;;;;5091954;28;20092;-57
2021/03/26 04:20:29;;;;;;;5.85;4.35;;;24.70;80.10;;;;;;5092551;28;20024;-62
2021/03/26 04:23:13;;;;;;;8.50;4.35;;;24.70;80.00;;;;;;5092250;28;20024;-61
2021/03/26 04:25:49;;;;;;;6.03;4.18;;;24.60;80.00;;;;;;5092819;28;20549;-61
2021/03/26 04:28:26;;;;;;;5.75;3.40;;;24.70;80.20;;;;;;5074082;28;20085;-61
2021/03/26 04:31:09;;;;;;;7.20;3.72;;;24.70;79.80;;;;;;5092874;28;20077;-59
2021/03/26 04:33:36;;;;;;;7.45;3.30;;;24.70;79.50;;;;;;5092171;28;20120;-56
2021/03/26 04:36:07;;;;;;;10.32;3.50;;;24.90;77.00;;;;;;5092357;28;20032;-57
2021/03/26 04:38:48;;;;;;;5.30;4.03;;;24.90;78.10;;;;;;5091762;28;20545;-59
2021/03/26 04:41:27;;;;;;;6.00;3.83;;;24.80;79.50;;;;;;5091667;28;20035;-60
2021/03/26 04:44:07;;;;;;;6.18;3.95;;;24.80;78.80;;;;;;5092025;28;20476;-57
2021/03/26 04:46:54;;;;;;;6.82;3.53;;;24.90;79.40;;;;;;5091854;28;20441;-56
2021/03/26 04:49:40;;;;;;;6.22;4.05;;;24.90;79.40;;;;;;5078021;28;20028;-57
2021/03/26 04:52:17;;;;;;;6.82;3.80;;;24.80;77.30;;;;;;5073335;28;20439;-56
2021/03/26 04:55:00;;;;;;;6.68;3.80;;;24.90;79.70;;;;;;5073671;28;20039;-62
2021/03/26 04:57:31;;;;;;;5.95;3.63;;;24.90;79.30;;;;;;5091730;28;20440;-60
2021/03/26 05:00:18;;;;;;;;;;;24.90;79.50;;;;;;5091092;28;20336;-54
2021/03/26 05:03:16;;;;;;;5.72;2.95;;;24.80;79.80;;;;;;5071706;28;19908;-59
2021/03/26 05:05:54;;;;;;;6.20;2.35;;;24.90;76.80;;;;;;5060355;28;20060;-63
2021/03/26 05:08:23;;;;;;;6.65;3.80;;;24.90;78.40;;;;;;5070159;28;20024;-55
2021/03/26 05:10:53;;;;;;;4.72;2.80;;;24.80;79.70;;;;;;5071112;28;20086;-61
2021/03/26 05:13:47;;;;;;;5.10;3.45;;;24.80;77.60;;;;;;5072108;28;20052;-57
2021/03/26 05:16:32;;;;;;;4.40;2.85;;;24.80;79.90;;;;;;5071677;28;20048;-59
2021/03/26 05:19:16;;;;;;;5.70;3.70;;;24.80;79.80;;;;;;5071805;28;20398;-51
2021/03/26 05:21:57;;;;;;;5.40;3.00;;;24.80;80.30;;;;;;5071554;28;20032;-59
2021/03/26 05:24:41;;;;;;;5.47;3.40;;;24.80;79.50;;;;;;5071201;28;20024;-56
2021/03/26 05:27:12;;;;;;;5.45;3.15;;;24.70;81.30;;;;;;5070981;28;20113;-57
2021/03/26 05:29:40;;;;;;;5.57;3.20;;;24.60;80.90;;;;;;5072276;28;20099;-58
2021/03/26 05:32:30;;;;;;;4.65;2.90;;;24.60;81.10;;;;;;5075121;28;20021;-60
2021/03/26 05:35:17;;;;;;;8.73;3.33;;;24.60;81.10;;;;;;5075128;28;20779;-55
2021/03/26 05:37:59;;;;;;;6.50;3.40;;;24.60;79.10;;;;;;5008186;28;20041;-59
2021/03/26 05:40:53;;;;;;;4.95;2.72;;;24.70;81.30;;;;;;5074616;28;20111;-60
2021/03/26 05:43:38;;;;;;;4.72;2.80;;;24.70;79.30;;;;;;5075013;28;20024;-61
2021/03/26 05:46:34;;;;;;;4.38;2.78;;;24.70;80.80;;;;;;5074947;28;20081;-56
2021/03/26 05:49:24;;;;;;;4.82;3.00;;;24.80;80.10;;;;;;5074373;28;20096;-61
2021/03/26 05:52:09;;;;;;;8.68;2.58;;;24.90;79.90;;;;;;5074470;28;20039;-61
2021/03/26 05:55:02;;;;;;;4.47;2.95;;;24.80;79.90;;;;;;5056410;28;20025;-62
2021/03/26 05:57:55;;;;;;;3.80;2.65;;;24.80;80.80;;;;;;5074833;28;20035;-61
2021/03/26 06:00:47;;;;;;;3.80;2.17;;;24.70;79.60;;;;;;5074542;28;20410;-60
2021/03/26 06:03:37;;;;;;;5.97;2.90;;;24.80;80.70;;;;;;5075131;28;20032;-57
2021/03/26 06:06:10;;;;;;;5.03;2.65;;;24.80;79.70;;;;;;5074504;28;20608;-58
2021/03/26 06:09:01;;;;;;;4.78;3.15;;;24.90;77.00;;;;;;5074711;28;20063;-61
2021/03/26 06:11:40;;;;;;;4.53;2.70;;;24.70;80.80;;;;;;5073988;28;20017;-59
2021/03/26 06:14:22;;;;;;;5.22;2.80;;;24.80;79.40;;;;;;5073992;28;20032;-57
2021/03/26 06:16:49;;;;;;;;;;;24.70;79.40;;;;;;5074455;28;20036;-54
2021/03/26 06:19:47;;;;;;;4.35;2.65;;;24.70;81.20;;;;;;5073942;28;20335;-61
2021/03/26 06:22:56;;;;;;;5.47;2.78;;;24.80;80.70;;;;;;5074066;28;20107;-58
2021/03/26 06:25:39;;;;;;;4.50;2.60;;;24.80;80.80;;;;;;5056289;28;20040;-58
2021/03/26 06:28:35;;;;;;;7.82;2.78;;;24.80;80.90;;;;;;5073863;28;20078;-53
2021/03/26 06:31:28;;;;;;;6.40;2.60;;;24.90;76.70;;;;;;5074476;28;20218;-56
2021/03/26 06:34:32;;;;;;;5.68;2.80;;;24.80;77.80;;;;;;5073745;28;20375;-56
2021/03/26 06:37:11;;;;;;;3.80;2.35;;;24.80;79.30;;;;;;5074385;28;20086;-57
2021/03/26 06:40:15;;;;;;;3.65;2.65;;;24.80;77.10;;;;;;5074354;28;20027;-56
2021/03/26 06:42:57;;;;;;;3.67;2.03;;;24.60;77.70;;;;;;5074251;28;20044;-60
2021/03/26 06:45:44;;;;;;;;;;;24.50;81.40;;;;;;5075033;28;20029;-60
2021/03/26 06:48:37;;;;;;;4.10;2.33;;;24.50;81.40;;;;;;5074001;28;19911;-60
2021/03/26 06:51:16;;;;;;;5.40;3.20;;;24.40;81.90;;;;;;5074139;28;20032;-58
2021/03/26 06:54:10;;;;;;;5.03;3.05;;;24.30;80.10;;;;;;5074512;28;20024;-64
2021/03/26 06:56:53;;;;;;;4.82;2.47;;;24.20;81.10;;;;;;5073354;28;20372;-53
2021/03/26 06:59:42;;;;;;;6.38;2.22;;;24.20;83.20;;;;;;5073767;28;20514;-53
2021/03/26 07:02:30;;;;;;;3.85;2.88;;;24.10;79.90;;;;;;5073649;28;20040;-52
2021/03/26 07:05:13;;;;;;;4.53;2.00;;;24.20;83.30;;;;;;5039981;28;20102;-53
2021/03/26 07:08:01;;;;;;;5.25;2.50;;;24.10;83.10;;;;;;5073751;28;20473;-58
2021/03/26 07:10:46;;;;;;;5.53;2.75;;;24.10;83.00;;;;;;5073864;28;20017;-51
2021/03/26 07:13:23;;;;;;;4.57;2.33;;;24.10;81.70;;;;;;5073368;28;20021;-61
2021/03/26 07:16:00;;;;;;;3.42;2.30;;;24.10;83.40;;;;;;5073553;28;20041;-58
2021/03/26 07:19:04;;;;;;;3.83;2.25;;;23.90;83.80;;;;;;5072755;28;20099;-55
2021/03/26 07:21:47;;;;;;;6.88;2.60;;;23.90;83.60;;;;;;5072716;28;20024;-56
2021/03/26 07:24:23;;;;;;;4.00;2.70;;;23.90;84.40;;;;;;5072812;28;20478;-56
2021/03/26 07:27:10;;;;;;;2.60;2.03;;;23.90;84.10;;;;;;5072584;28;20109;-59
2021/03/26 07:30:01;;;;;;;3.90;2.17;;;23.90;83.60;;;;;;5073624;28;20036;-56
2021/03/26 07:32:54;;;;;;;3.42;2.10;;;23.90;84.30;;;;;;5073075;28;20124;-60
2021/03/26 07:35:38;;;;;;;3.67;2.08;;;23.90;83.10;;;;;;5073189;28;20386;-54
2021/03/26 07:38:35;;;;;;;4.60;2.08;;;23.80;84.10;;;;;;5073244;28;20032;-59
2021/03/26 07:41:32;;;;;;;7.20;2.03;;;23.80;81.80;;;;;;5072221;28;20074;-56
2021/03/26 07:44:30;;;;;;;3.03;1.85;;;23.80;82.60;;;;;;5072015;28;20031;-58
2021/03/26 07:47:26;;;;;;;5.50;2.35;;;23.70;84.60;;;;;;5072688;28;20042;-57
2021/03/26 07:50:30;;;;;;;4.68;2.13;;;23.70;84.30;;;;;;5061953;28;20029;-56
2021/03/26 07:53:31;;;;;;;4.50;2.30;;;23.60;84.70;;;;;;5053144;28;20052;-59
2021/03/26 07:56:07;;;;;;;4.30;2.70;;;23.50;83.50;;;;;;5072036;28;20131;-66
2021/03/26 07:58:54;;;;;;;3.53;2.30;;;23.50;83.90;;;;;;5071795;28;20020;-58
2021/03/26 08:02:17;;;;;;;6.30;2.83;;;23.50;83.60;;;;;;5020712;28;20390;-59
2021/03/26 08:05:17;;;;;;;4.75;2.85;;;23.40;83.60;;;;;;4955095;28;20046;-59
2021/03/26 08:08:08;;;;;;;12.77;2.88;;;23.40;85.00;;;;;;5072661;28;20036;-63
2021/03/26 08:10:44;;;;;;;4.45;1.90;;;23.40;82.60;;;;;;5070925;28;20139;-61
2021/03/26 08:13:35;;;;;;;4.80;2.47;;;23.30;84.80;;;;;;5072608;28;20032;-63
2021/03/26 08:16:41;;;;;;;3.97;2.55;;;23.30;85.50;;;;;;5072707;28;20044;-64
2021/03/26 08:19:26;;;;;;;3.95;2.00;;;23.30;84.10;;;;;;5072627;28;20403;-60
2021/03/26 08:22:14;;;;;;;5.18;2.17;;;23.20;85.20;;;;;;5072503;28;20032;-57
2021/03/26 08:25:01;;;;;;;4.95;2.22;;;23.20;84.10;;;;;;5072434;28;20027;-58
2021/03/26 08:27:37;;;;;;;5.28;2.35;;;23.20;85.80;;;;;;5072343;28;20025;-59
2021/03/26 08:30:44;;;;;;;4.57;1.88;;;23.20;85.10;;;;;;5054897;28;20530;-57
2021/03/26 08:33:30;;;;;;;4.68;1.90;;;23.10;84.50;;;;;;5071736;28;20375;-59
2021/03/26 08:36:00;;;;;;;6.78;2.20;;;23.10;84.30;;;;;;5072243;28;20035;-60
2021/03/26 08:38:54;;;;;;;4.88;2.58;;;23.10;83.70;;;;;;5072552;28;20016;-59
2021/03/26 08:41:32;;;;;;;6.20;2.35;;;23.10;84.00;;;;;;5071854;28;20550;-58
2021/03/26 08:44:01;;;;;;;4.25;2.00;;;23.00;84.80;;;;;;5072381;28;20067;-60
2021/03/26 08:46:33;;;;;;;5.40;1.98;;;23.00;85.10;;;;;;5071903;28;20041;-65
2021/03/26 08:49:20;;;;;;;4.63;2.40;;;23.00;84.90;;;;;;5072479;28;20029;-55
2021/03/26 08:52:15;;;;;;;3.88;2.38;;;22.90;85.80;;;;;;5054329;28;20025;-59
2021/03/26 08:55:09;;;;;;;3.55;1.77;;;22.90;86.50;;;;;;5071901;28;20031;-59
2021/03/26 08:57:58;;;;;;;2.78;1.60;;;22.90;86.20;;;;;;5072139;28;20052;-57
2021/03/26 09:00:32;;;;;;;3.90;2.20;;;22.80;86.40;;;;;;5072435;28;20099;-54
2021/03/26 09:03:03;;;;;;;3.85;2.03;;;22.80;86.50;;;;;;5072533;28;20119;-57
2021/03/26 09:05:48;;;;;;;5.88;2.20;;;22.80;85.60;;;;;;5071697;28;20543;-57
2021/03/26 09:08:37;;;;;;;3.92;2.10;;;22.80;85.90;;;;;;5072233;28;20060;-55
2021/03/26 09:11:22;;;;;;;4.00;2.30;;;22.80;86.30;;;;;;5072402;28;20016;-60
2021/03/26 09:14:26;;;;;;;4.40;2.42;;;22.80;86.40;;;;;;5072142;28;20356;-54
2021/03/26 09:16:56;;;;;;;5.55;1.80;;;22.80;85.80;;;;;;5072443;28;20417;-57
2021/03/26 09:19:42;;;;;;;5.30;2.42;;;22.80;85.70;;;;;;5072823;28;20413;-62
2021/03/26 09:22:46;;;;;;;3.22;1.92;;;22.70;86.10;;;;;;5072350;28;20025;-58
2021/03/26 09:25:45;;;;;;;4.53;2.20;;;22.70;86.50;;;;;;5071230;28;20017;-53
2021/03/26 09:28:44;;;;;;;3.00;2.03;;;22.60;86.70;;;;;;5072285;28;20116;-56
2021/03/26 09:31:46;;;;;;;5.53;2.20;;;22.60;86.60;;;;;;5072804;28;20025;-60
2021/03/26 09:34:29;;;;;;;2.65;1.63;;;22.60;86.30;;;;;;5057822;28;20032;-60
2021/03/26 09:37:31;;;;;;;4.90;2.58;;;22.60;87.00;;;;;;5071824;28;20040;-60
2021/03/26 09:40:02;;;;;;;4.13;1.92;;;22.60;86.90;;;;;;5048110;28;20053;-62
2021/03/26 09:42:44;;;;;;;3.47;1.77;;;22.60;86.80;;;;;;5051307;28;20029;-60
2021/03/26 09:45:44;;;;;;;5.78;2.03;;;22.60;86.80;;;;;;5051110;28;20075;-59
2021/03/26 09:48:41;;;;;;;9.43;2.17;;;22.60;87.50;;;;;;5009796;28;20036;-57
2021/03/26 09:51:24;;;;;;;4.00;2.17;;;22.60;86.90;;;;;;5051805;28;20092;-60
2021/03/26 09:53:55;;;;;;;7.57;2.15;;;22.60;86.30;;;;;;5056288;28;20063;-59
2021/03/26 09:56:34;;;;;;;6.05;1.95;;;22.60;86.30;;;;;;5070244;28;20049;-57
2021/03/26 09:59:32;;;;;;;7.40;2.28;;;22.60;86.60;;;;;;5069821;28;20067;-56
2021/03/26 10:02:12;;;;;;;4.13;2.08;;;22.60;87.30;;;;;;5070956;28;20029;-60
2021/03/26 10:05:07;;;;;;;5.88;2.13;;;22.60;87.40;;;;;;5071062;28;20023;-58
2021/03/26 10:08:21;;;;;;;4.10;2.08;;;22.60;87.50;;;;;;5090318;28;20041;-55
2021/03/26 10:10:50;;;;;;;8.95;2.22;;;22.50;87.50;;;;;;5091480;28;20103;-56
2021/03/26 10:13:22;;;;;;;4.65;2.03;;;22.50;87.50;;;;;;5091951;28;20065;-61
2021/03/26 10:16:02;;;;;;;4.38;2.20;;;22.50;87.50;;;;;;5092481;28;20024;-57
2021/03/26 10:18:38;;;;;;;3.05;1.67;;;22.50;87.50;;;;;;5094712;28;20024;-54
2021/03/26 10:21:31;;;;;;;3.45;1.70;;;22.50;87.60;;;;;;5095035;28;20465;-61
2021/03/26 10:24:17;;;;;;;3.58;1.90;;;22.50;87.60;;;;;;5091079;28;20073;-61
2021/03/26 10:26:52;;;;;;;3.60;2.00;;;22.50;87.50;;;;;;5094750;28;20454;-53
2021/03/26 10:29:30;;;;;;;4.53;1.85;;;22.50;87.60;;;;;;5094873;28;20050;-56
2021/03/26 10:32:09;;;;;;;5.68;2.00;;;22.40;87.50;;;;;;5094836;28;20016;-59
2021/03/26 10:34:41;;;;;;;2.45;1.65;;;22.40;87.70;;;;;;5094590;28;20035;-61
2021/03/26 10:37:29;;;;;;;4.38;1.92;;;22.40;87.50;;;;;;5094213;28;20074;-61
2021/03/26 10:40:03;;;;;;;4.20;1.92;;;22.40;87.60;;;;;;5094565;28;20073;-60
2021/03/26 10:42:44;;;;;;;3.90;1.85;;;22.40;87.80;;;;;;5094580;28;20024;-61
2021/03/26 10:45:31;;;;;;;4.28;2.10;;;22.40;87.20;;;;;;5093977;28;20103;-60
2021/03/26 10:48:12;;;;;;;2.72;1.92;;;22.40;87.80;;;;;;5094819;28;20020;-57
2021/03/26 10:51:06;;;;;;;4.00;2.05;;;22.30;87.50;;;;;;5094446;28;20024;-60
2021/03/26 10:53:59;;;;;;;3.75;1.90;;;22.30;87.80;;;;;;5093922;28;20024;-59
2021/03/26 10:56:41;;;;;;;2.75;1.60;;;22.40;87.50;;;;;;5093800;28;20383;-60
2021/03/26 10:59:20;;;;;;;3.65;2.03;;;22.40;87.80;;;;;;5094548;28;20039;-61
2021/03/26 11:01:50;;;;;;;3.88;2.03;;;22.30;87.80;;;;;;5094281;28;20089;-57
2021/03/26 11:04:39;;;;;;;6.03;1.70;;;22.30;87.70;;;;;;5094447;28;20470;-61
2021/03/26 11:07:17;;;;;;;2.80;1.65;;;22.40;87.60;;;;;;5092964;28;20135;-61
2021/03/26 11:09:51;;;;;;;3.30;1.65;;;22.30;87.60;;;;;;5076948;28;20444;-62
2021/03/26 11:12:35;;;;;;;3.20;1.80;;;22.30;87.60;;;;;;5094781;28;20028;-60
2021/03/26 11:15:32;;;;;;;5.47;1.60;;;22.30;87.80;;;;;;5093937;28;20454;-60
2021/03/26 11:18:35;;;;;;;3.78;1.50;;;22.30;87.80;;;;;;5094075;28;20398;-59
2021/03/26 11:21:10;;;;;;;3.38;2.00;;;22.30;87.70;;;;;;5093803;28;20039;-55
2021/03/26 11:23:41;;;;;;;5.25;1.75;;;22.30;87.90;;;;;;5094253;28;20020;-61
2021/03/26 11:26:25;;;;;;;2.63;1.70;;;22.30;87.70;;;;;;5093374;28;20423;-55
2021/03/26 11:28:55;;;;;;;2.85;1.63;;;22.30;87.90;;;;;;5093871;28;20477;-57
2021/03/26 11:31:50;;;;;;;2.92;1.77;;;22.30;87.90;;;;;;5093720;28;20025;-57
2021/03/26 11:34:53;;;;;;;4.85;1.85;;;22.20;87.90;;;;;;5094130;28;20027;-61
2021/03/26 11:37:40;;;;;;;5.50;1.75;;;22.20;87.80;;;;;;5011244;28;20026;-53
2021/03/26 11:40:28;;;;;;;5.53;2.00;;;22.20;87.70;;;;;;5089138;28;20412;-53
2021/03/26 11:43:13;;;;;;;4.03;1.40;;;22.20;87.60;;;;;;5083150;28;20103;-56
2021/03/26 11:45:40;;;;;;;5.03;2.00;;;22.20;87.90;;;;;;5073290;28;20020;-53
2021/03/26 11:48:37;;;;;;;3.95;2.05;;;22.20;87.80;;;;;;5073191;28;20059;-54
2021/03/26 11:51:09;;;;;;;3.95;1.77;;;22.20;88.00;;;;;;5072838;28;20049;-59
2021/03/26 11:54:02;;;;;;;4.45;2.08;;;22.20;87.70;;;;;;5073022;28;20024;-54
2021/03/26 11:56:54;;;;;;;2.50;1.75;;;22.10;87.90;;;;;;5064029;28;20068;-51
2021/03/26 11:59:47;;;;;;;5.15;2.20;;;22.10;87.90;;;;;;5055129;28;20020;-58
2021/03/26 12:02:26;;;;;;;3.28;1.88;;;22.10;88.00;;;;;;5072874;28;20532;-62
2021/03/26 12:05:08;;;;;;;6.82;2.08;;;22.10;87.90;;;;;;5072805;28;20029;-59
2021/03/26 12:07:45;;;;;;;3.92;1.95;;;22.10;87.90;;;;;;5072247;28;20406;-59
2021/03/26 12:11:00;;;;;;;2.58;1.65;;;22.10;88.10;;;;;;5072553;28;20036;-54
2021/03/26 12:13:51;;;;;;;3.85;1.92;;;22.10;88.10;;;;;;5072371;28;20021;-57
2021/03/26 12:16:29;;;;;;;4.22;1.83;;;22.00;88.10;;;;;;5072219;28;20041;-57
2021/03/26 12:19:05;;;;;;;3.05;1.52;;;22.00;88.20;;;;;;5072430;28;20028;-59
2021/03/26 12:21:57;;;;;;;6.18;2.08;;;22.00;87.90;;;;;;5072441;28;20059;-59
2021/03/26 12:24:35;;;;;;;2.70;1.65;;;22.00;88.30;;;;;;5024806;28;20036;-55
2021/03/26 12:27:29;;;;;;;3.53;1.85;;;22.00;88.20;;;;;;5072347;28;20047;-60
2021/03/26 12:30:12;;;;;;;2.55;1.70;;;22.00;88.00;;;;;;5072368;28;20028;-58
2021/03/26 12:32:57;;;;;;;3.88;1.50;;;22.00;88.10;;;;;;5072587;28;20035;-62
2021/03/26 12:35:29;;;;;;;2.58;1.80;;;22.00;88.10;;;;;;5072092;28;20052;-60
2021/03/26 12:38:22;;;;;;;6.47;2.70;;;22.00;88.10;;;;;;5072042;28;20471;-61
2021/03/26 12:41:01;;;;;;;3.30;1.67;;;22.00;88.40;;;;;;5071991;28;20193;-61
2021/03/26 12:43:31;;;;;;;2.72;1.63;;;22.00;88.30;;;;;;5072170;28;20087;-60
2021/03/26 12:46:14;;;;;;;4.47;1.77;;;21.90;88.30;;;;;;5072237;28;20024;-61
2021/03/26 12:48:48;;;;;;;4.20;2.00;;;21.90;88.30;;;;;;5072080;28;20471;-61
2021/03/26 12:51:27;;;;;;;3.03;1.48;;;21.90;88.30;;;;;;5071799;28;20029;-60
2021/03/26 12:54:23;;;;;;;6.22;2.20;;;21.90;88.40;;;;;;5071785;28;20032;-59
2021/03/26 12:57:08;;;;;;;2.72;1.50;;;21.90;88.40;;;;;;5053680;28;20036;-56
2021/03/26 12:59:42;;;;;;;3.30;1.75;;;21.90;88.50;;;;;;5072219;28;20027;-59
2021/03/26 13:02:33;;;;;;;3.92;1.80;;;21.90;88.50;;;;;;5072022;28;20029;-56
2021/03/26 13:05:06;;;;;;;5.72;1.98;;;21.90;88.50;;;;;;5053900;28;20032;-59
2021/03/26 13:07:36;;;;;;;2.75;1.65;;;21.90;88.10;;;;;;5071412;28;20101;-57
2021/03/26 13:10:21;;;;;;;2.47;1.33;;;21.90;88.50;;;;;;5072033;28;20029;-57
2021/03/26 13:12:50;;;;;;;3.85;1.90;;;21.90;88.40;;;;;;5066618;28;20020;-52
2021/03/26 13:15:27;;;;;;;3.33;1.90;;;21.90;88.40;;;;;;5067398;28;20020;-54
2021/03/26 13:18:12;;;;;;;3.45;1.60;;;21.80;88.40;;;;;;5069696;28;20028;-53
2021/03/26 13:21:09;;;;;;;3.20;1.88;;;21.80;88.30;;;;;;5067227;28;20046;-53
2021/03/26 13:23:37;;;;;;;2.22;1.70;;;21.80;88.50;;;;;;5049419;28;20041;-53
2021/03/26 13:26:16;;;;;;;1.95;1.73;;;21.80;88.50;;;;;;5069579;28;20034;-54
2021/03/26 13:28:47;;;;;;;2.03;1.60;;;21.80;88.50;;;;;;5069608;28;20081;-53
2021/03/26 13:31:20;;;;;;;2.10;1.40;;;21.80;88.50;;;;;;5069986;28;20025;-55
2021/03/26 13:33:56;;;;;;;2.95;1.77;;;21.80;88.50;;;;;;5062209;28;20355;-55
2021/03/26 13:36:32;;;;;;;5.38;1.98;;;21.80;88.20;;;;;;5068434;28;20085;-53
2021/03/26 13:39:24;;;;;;;4.40;1.65;;;21.80;88.50;;;;;;5070125;28;20047;-54
2021/03/26 13:42:03;;;;;;;2.15;1.40;;;21.80;88.50;;;;;;5064184;28;20418;-56
2021/03/26 13:44:36;;;;;;;3.58;2.20;;;21.80;88.60;;;;;;5066485;28;20563;-54
2021/03/26 13:47:08;;;;;;;4.95;1.75;;;21.80;88.60;;;;;;5069490;28;20581;-52
2021/03/26 13:49:46;;;;;;;3.60;2.10;;;21.80;88.70;;;;;;5069649;28;20119;-52
2021/03/26 13:52:30;;;;;;;5.97;1.40;;;21.80;88.70;;;;;;5073230;28;20112;-53
2021/03/26 13:55:09;;;;;;;3.85;1.73;;;21.80;88.60;;;;;;5047692;28;20111;-51
2021/03/26 13:57:38;;;;;;;3.25;1.90;;;21.80;88.60;;;;;;5070254;28;20078;-52
2021/03/26 14:00:28;;;;;;;2.50;1.75;;;21.80;89.20;;;;;;5073239;28;20104;-63
2021/03/26 14:03:21;;;;;;;4.95;2.42;;;21.80;88.70;;;;;;5072973;28;20029;-55